Time;durP1;ratioP1;P1;durP2;ratioP2;P2;SDS_P1;SDS_P2;PMS_P1;PMS_P2;Temp;Humidity;BMP_temperature;BMP_pressure;BME280_temperature;BME280_humidity;BME280_pressure;Samples;Min_cycle;Max_cycle;Signal;HPM_P1;HPM_P2
2024/01/28 07:24:00;;;;;;;7.28;2.58;;;;;;;-0.19;71.54;95151.22;5046077;28;20045;-88
2024/01/28 07:26:26;;;;;;;8.60;3.03;;;;;;;-0.11;71.53;95165.88;5046666;28;20028;-87
2024/01/28 07:28:51;;;;;;;8.25;3.10;;;;;;;-0.16;71.55;95163.09;5046011;28;20018;-86
2024/01/28 07:31:17;;;;;;;5.95;2.60;;;;;;;-0.18;71.79;95178.22;5045967;28;20064;-82
2024/01/28 07:33:42;;;;;;;10.77;2.10;;;;;;;-0.10;71.62;95180.56;5045170;28;20062;-83
2024/01/28 07:36:08;;;;;;;6.30;2.80;;;;;;;-0.07;71.75;95169.69;5045926;28;20346;-83
2024/01/28 07:38:34;;;;;;;8.38;2.85;;;;;;;-0.08;71.44;95166.25;5045040;28;20021;-77
2024/01/28 07:40:59;;;;;;;10.27;2.97;;;;;;;-0.04;71.48;95177.09;5044942;28;20017;-78
2024/01/28 07:43:25;;;;;;;5.03;2.63;;;;;;;-0.01;71.50;95177.47;5043995;28;20059;-78
2024/01/28 07:45:50;;;;;;;4.40;2.63;;;;;;;0.03;71.07;95170.00;5044751;28;20040;-77
2024/01/28 07:48:19;;;;;;;8.48;3.30;;;;;;;0.10;71.14;95176.00;5044978;28;20013;-76
2024/01/28 07:50:44;;;;;;;6.47;2.83;;;;;;;0.08;71.17;95166.72;5044970;28;20040;-76
2024/01/28 07:53:12;;;;;;;7.80;2.50;;;;;;;0.11;71.06;95174.16;5044915;28;20021;-77
2024/01/28 07:55:37;;;;;;;10.48;2.63;;;;;;;0.03;70.89;95183.09;5044644;28;20099;-78
2024/01/28 07:58:03;;;;;;;6.50;3.00;;;;;;;0.16;70.96;95190.03;5043569;28;20029;-77
2024/01/28 08:00:28;;;;;;;6.75;3.42;;;;;;;0.27;70.22;95183.31;5044197;28;20024;-77
2024/01/28 08:02:54;;;;;;;9.15;3.00;;;;;;;0.27;69.96;95183.31;5043076;28;20021;-77
2024/01/28 08:05:19;;;;;;;5.53;2.20;;;;;;;0.19;70.16;95177.31;5043500;28;20021;-77
2024/01/28 08:07:45;;;;;;;6.30;2.67;;;;;;;0.24;70.53;95183.72;5043647;28;20022;-77
2024/01/28 08:10:10;;;;;;;6.70;3.13;;;;;;;0.31;70.83;95194.97;5043373;28;20032;-77
2024/01/28 08:12:36;;;;;;;8.13;2.90;;;;;;;0.30;70.42;95188.13;5042664;28;20263;-77
2024/01/28 08:15:04;;;;;;;5.78;2.70;;;;;;;0.24;71.03;95189.78;5043321;28;20063;-77
2024/01/28 08:17:30;;;;;;;5.28;2.72;;;;;;;0.34;71.03;95176.97;5043194;28;20025;-77
2024/01/28 08:19:55;;;;;;;10.23;3.53;;;;;;;0.49;70.65;95181.06;5043778;28;20063;-77
2024/01/28 08:22:21;;;;;;;6.75;3.20;;;;;;;0.56;69.68;95190.47;5042077;28;20312;-77
2024/01/28 08:24:46;;;;;;;7.63;2.58;;;;;;;0.55;69.74;95204.63;5043477;28;20047;-77
2024/01/28 08:27:12;;;;;;;6.85;2.88;;;;;;;0.47;70.43;95198.84;5043283;28;20151;-78
2024/01/28 08:29:38;;;;;;;5.95;2.72;;;;;;;0.48;69.93;95185.50;5043432;28;20040;-78
2024/01/28 08:32:04;;;;;;;9.80;2.95;;;;;;;0.58;69.84;95191.06;5043561;28;20093;-77
2024/01/28 08:34:30;;;;;;;6.03;2.97;;;;;;;0.66;69.06;95197.06;5043458;28;20026;-81
2024/01/28 08:36:55;;;;;;;6.20;2.47;;;;;;;0.76;68.94;95198.16;5042797;28;20067;-82
2024/01/28 08:39:21;;;;;;;8.18;3.10;;;;;;;0.77;68.17;95194.53;5043194;28;20025;-80
2024/01/28 08:41:47;;;;;;;4.70;2.45;;;;;;;0.85;68.17;95196.03;5042153;28;20017;-79
2024/01/28 08:44:14;;;;;;;11.05;3.10;;;;;;;0.91;68.54;95203.03;5043044;28;20108;-80
2024/01/28 08:46:40;;;;;;;5.57;2.88;;;;;;;1.06;67.73;95207.09;5043394;28;20056;-82
2024/01/28 08:49:05;;;;;;;10.43;2.10;;;;;;;1.04;67.58;95196.00;5043444;28;20029;-80
2024/01/28 08:51:31;;;;;;;8.95;2.88;;;;;;;1.05;67.12;95210.75;5042938;28;20255;-79
2024/01/28 08:53:56;;;;;;;7.00;2.03;;;;;;;0.98;67.15;95201.13;5043258;28;20029;-79
2024/01/28 08:56:22;;;;;;;5.10;2.40;;;;;;;1.02;67.34;95230.41;5043085;28;20066;-80
2024/01/28 08:58:47;;;;;;;7.22;2.45;;;;;;;1.07;67.28;95227.09;5043222;28;20088;-80
2024/01/28 09:01:13;;;;;;;8.25;2.40;;;;;;;1.08;67.46;95223.44;5043521;28;20017;-79
2024/01/28 09:03:39;;;;;;;5.38;2.70;;;;;;;1.13;67.35;95236.72;5042948;28;20079;-81
2024/01/28 09:06:06;;;;;;;7.72;2.42;;;;;;;1.07;67.43;95233.16;5042944;28;20032;-80
2024/01/28 09:08:31;;;;;;;7.30;2.65;;;;;;;1.11;67.44;95231.69;5041486;28;20240;-80
2024/01/28 09:10:57;;;;;;;7.13;2.42;;;;;;;1.25;67.14;95237.59;5043089;28;20045;-79
2024/01/28 09:13:24;;;;;;;5.30;2.30;;;;;;;1.33;65.88;95228.63;5043027;28;20098;-80
2024/01/28 09:15:50;;;;;;;3.72;2.28;;;;;;;1.31;65.95;95220.94;5042973;28;20029;-80
2024/01/28 09:18:15;;;;;;;4.35;2.15;;;;;;;1.39;66.01;95215.38;5042940;28;20059;-79
2024/01/28 09:20:40;;;;;;;4.93;2.33;;;;;;;1.58;65.80;95220.59;5042616;28;20324;-80
2024/01/28 09:23:06;;;;;;;7.97;2.75;;;;;;;1.52;65.63;95222.28;5042631;28;20116;-80
2024/01/28 09:25:33;;;;;;;7.07;2.45;;;;;;;1.56;65.78;95218.19;5042482;28;20031;-80
2024/01/28 09:27:59;;;;;;;4.28;2.50;;;;;;;1.73;65.27;95234.16;5042773;28;20021;-80
2024/01/28 09:30:25;;;;;;;5.63;2.45;;;;;;;1.67;65.51;95229.78;5041359;28;20033;-79
2024/01/28 09:32:50;;;;;;;7.00;3.00;;;;;;;1.77;65.13;95237.94;5042995;28;20056;-80
2024/01/28 09:35:16;;;;;;;7.13;3.20;;;;;;;1.79;64.92;95228.00;5041728;28;20025;-80
2024/01/28 09:37:41;;;;;;;7.53;3.10;;;;;;;1.79;64.65;95237.69;5042556;28;20320;-80
2024/01/28 09:40:07;;;;;;;4.68;2.22;;;;;;;1.78;64.92;95229.00;5042519;28;20029;-80
2024/01/28 09:42:42;;;;;;;4.72;2.20;;;;;;;1.75;65.04;95218.97;5042246;28;20021;-80
2024/01/28 09:45:08;;;;;;;7.25;2.30;;;;;;;1.87;65.23;95218.97;5042418;28;20291;-80
2024/01/28 09:47:35;;;;;;;5.10;2.50;;;;;;;1.89;64.44;95224.00;5042254;28;20075;-80
2024/01/28 09:50:04;;;;;;;5.18;2.53;;;;;;;1.88;65.11;95217.94;5041349;28;20025;-80
2024/01/28 09:52:30;;;;;;;5.00;2.60;;;;;;;2.01;65.02;95209.06;5040910;28;20022;-80
2024/01/28 09:54:56;;;;;;;11.52;3.05;;;;;;;2.13;64.04;95223.03;5042653;28;20022;-80
2024/01/28 09:57:23;;;;;;;9.25;2.33;;;;;;;2.10;63.86;95212.19;5040949;28;20204;-79
2024/01/28 09:59:50;;;;;;;8.07;2.95;;;;;;;1.98;63.32;95226.09;5041991;28;20025;-81
2024/01/28 10:02:17;;;;;;;11.38;2.80;;;;;;;2.01;63.68;95209.06;5042139;28;20028;-80
2024/01/28 10:04:45;;;;;;;6.93;2.42;;;;;;;2.00;63.94;95212.72;5042242;28;20039;-80
2024/01/28 10:07:11;;;;;;;6.65;2.83;;;;;;;2.00;64.21;95207.47;5042141;28;20044;-80
2024/01/28 10:09:37;;;;;;;6.38;2.53;;;;;;;2.00;63.60;95224.03;5042040;28;20021;-81
2024/01/28 10:12:03;;;;;;;5.93;3.00;;;;;;;2.04;63.67;95205.19;5042190;28;20058;-80
2024/01/28 10:14:29;;;;;;;9.10;2.63;;;;;;;2.04;63.49;95213.09;5042142;28;20021;-81
2024/01/28 10:16:57;;;;;;;5.75;3.00;;;;;;;2.07;64.25;95202.09;5042139;28;20040;-81
2024/01/28 10:19:25;;;;;;;8.23;2.70;;;;;;;2.18;64.11;95203.97;5041808;28;20037;-80
2024/01/28 10:21:51;;;;;;;8.27;2.72;;;;;;;2.27;63.67;95218.38;5041939;28;20263;-81
2024/01/28 10:24:17;;;;;;;8.80;3.70;;;;;;;2.19;63.41;95226.59;5041956;28;20076;-81
2024/01/28 10:26:42;;;;;;;4.75;2.40;;;;;;;2.02;64.04;95223.81;5042157;28;20033;-81
2024/01/28 10:29:10;;;;;;;6.75;2.67;;;;;;;2.02;64.51;95226.44;5041870;28;20215;-81
2024/01/28 10:31:37;;;;;;;6.38;2.40;;;;;;;1.90;64.56;95209.84;5041808;28;20036;-81
2024/01/28 10:34:05;;;;;;;7.32;3.35;;;;;;;1.88;65.38;95210.06;5042000;28;20033;-81
2024/01/28 10:36:34;;;;;;;9.43;3.28;;;;;;;1.94;65.19;95200.47;5042173;28;20025;-79
2024/01/28 10:39:04;;;;;;;10.07;3.53;;;;;;;1.96;65.27;95193.16;5041806;28;20029;-81
2024/01/28 10:41:32;;;;;;;11.38;3.85;;;;;;;2.02;65.73;95202.78;5041875;28;20026;-81
2024/01/28 10:44:05;;;;;;;7.75;3.45;;;;;;;2.14;64.95;95198.34;5041759;28;20025;-81
2024/01/28 10:46:41;;;;;;;7.07;2.88;;;;;;;2.29;64.44;95195.25;5044109;28;20025;-82
2024/01/28 10:49:09;;;;;;;6.20;2.58;;;;;;;2.22;64.33;95202.47;5045423;28;20030;-81
2024/01/28 10:51:39;;;;;;;5.65;2.72;;;;;;;2.15;64.00;95209.66;5045236;28;20089;-80
2024/01/28 10:54:10;;;;;;;8.00;3.30;;;;;;;2.15;64.14;95197.31;5045360;28;20267;-81
2024/01/28 10:56:39;;;;;;;8.35;3.20;;;;;;;2.11;64.02;95193.53;5045504;28;20087;-81
2024/01/28 10:59:05;;;;;;;11.13;3.40;;;;;;;2.07;64.56;95191.56;5045098;28;20084;-81
2024/01/28 11:01:33;;;;;;;5.82;2.95;;;;;;;1.93;64.68;95197.03;5045225;28;20037;-81
2024/01/28 11:03:59;;;;;;;14.00;3.38;;;;;;;2.00;64.74;95189.84;5045068;28;20028;-81
2024/01/28 11:06:30;;;;;;;6.72;3.00;;;;;;;2.00;65.61;95191.69;5044005;28;20053;-81
2024/01/28 11:08:55;;;;;;;14.23;4.22;;;;;;;2.07;64.24;95200.25;5045219;28;20021;-81
2024/01/28 11:11:22;;;;;;;3.88;2.00;;;;;;;2.00;64.13;95204.84;5045091;28;20223;-81
2024/01/28 11:13:48;;;;;;;7.45;2.50;;;;;;;1.82;64.64;95207.53;5045207;28;20188;-81
2024/01/28 11:16:15;;;;;;;8.70;2.80;;;;;;;1.86;65.27;95179.78;5044988;28;20040;-81
2024/01/28 11:19:00;;;;;;;6.28;2.80;;;;;;;1.78;66.18;95205.34;5045045;28;20025;-81
2024/01/28 11:21:27;;;;;;;5.63;3.20;;;;;;;1.77;65.98;95189.78;5044982;28;20032;-81
2024/01/28 11:23:54;;;;;;;7.55;3.15;;;;;;;1.70;66.66;95187.28;5044606;28;20044;-82
2024/01/28 11:26:20;;;;;;;7.00;3.47;;;;;;;1.78;66.43;95181.69;5045051;28;20034;-76
2024/01/28 11:28:50;;;;;;;7.50;4.00;;;;;;;1.75;66.72;95189.22;5045012;28;20025;-79
2024/01/28 11:31:33;;;;;;;8.68;3.70;;;;;;;1.84;67.91;95187.88;5044842;28;20021;-79
2024/01/28 11:34:20;;;;;;;9.38;2.90;;;;;;;1.96;67.02;95183.44;5045173;28;20062;-79
2024/01/28 11:36:53;;;;;;;7.65;2.85;;;;;;;2.05;67.15;95185.75;5045056;28;20033;-75
2024/01/28 11:39:45;;;;;;;10.63;3.33;;;;;;;1.98;66.44;95184.03;5044821;28;20040;-81
2024/01/28 11:42:11;;;;;;;6.82;3.35;;;;;;;1.98;66.63;95183.22;5043584;28;20021;-76
2024/01/28 11:44:37;;;;;;;4.80;3.22;;;;;;;1.88;66.54;95193.50;5044409;28;20121;-76
2024/01/28 11:47:03;;;;;;;7.63;3.60;;;;;;;1.75;67.06;95190.03;5044789;28;20037;-77
2024/01/28 11:49:29;;;;;;;5.50;3.05;;;;;;;1.70;67.48;95183.84;5045180;28;20043;-77
2024/01/28 11:51:54;;;;;;;8.77;3.13;;;;;;;1.72;67.32;95182.59;5044873;28;20029;-77
2024/01/28 11:54:21;;;;;;;8.52;3.17;;;;;;;1.63;67.96;95180.50;5044555;28;20025;-76
2024/01/28 11:56:46;;;;;;;8.23;3.45;;;;;;;1.65;68.28;95183.72;5044469;28;20224;-76
2024/01/28 11:59:12;;;;;;;8.00;3.15;;;;;;;1.66;68.13;95186.13;5043981;28;20071;-76
2024/01/28 12:01:37;;;;;;;7.10;3.17;;;;;;;1.59;68.66;95180.97;5044318;28;20033;-76
2024/01/28 12:04:04;;;;;;;8.93;4.00;;;;;;;1.57;68.54;95176.97;5044438;28;20040;-76
2024/01/28 12:06:31;;;;;;;8.13;3.47;;;;;;;1.56;68.80;95189.28;5044215;28;20053;-76
2024/01/28 12:09:00;;;;;;;16.35;3.38;;;;;;;1.55;68.51;95200.03;5044316;28;20118;-76
2024/01/28 12:11:27;;;;;;;10.13;4.22;;;;;;;1.52;69.03;95195.22;5042962;28;20316;-76
2024/01/28 12:13:52;;;;;;;11.32;3.85;;;;;;;1.48;68.16;95189.59;5044177;28;20036;-80
2024/01/28 12:16:21;;;;;;;7.00;3.58;;;;;;;1.48;67.82;95184.34;5044083;28;20216;-75
2024/01/28 12:18:48;;;;;;;9.65;4.30;;;;;;;1.58;68.37;95192.50;5043792;28;20029;-77
2024/01/28 12:21:18;;;;;;;9.82;4.30;;;;;;;1.52;68.00;95188.13;5043497;28;20029;-74
2024/01/28 12:23:48;;;;;;;7.05;4.05;;;;;;;1.45;68.43;95176.91;5043446;28;20057;-73
2024/01/28 12:26:15;;;;;;;8.63;3.72;;;;;;;1.38;68.74;95195.41;5043412;28;20075;-73
2024/01/28 12:28:42;;;;;;;8.10;3.92;;;;;;;1.36;68.97;95197.44;5043579;28;20037;-75
2024/01/28 12:31:09;;;;;;;7.13;4.05;;;;;;;1.27;68.92;95190.88;5042902;28;20079;-74
2024/01/28 12:33:35;;;;;;;10.05;3.67;;;;;;;1.24;69.56;95188.69;5043216;28;20064;-74
2024/01/28 12:36:00;;;;;;;11.40;4.68;;;;;;;1.29;69.47;95188.06;5043291;28;20100;-74
2024/01/28 12:38:26;;;;;;;11.43;4.55;;;;;;;1.40;69.27;95187.28;5043257;28;20021;-75
2024/01/28 12:40:51;;;;;;;10.65;4.05;;;;;;;1.50;69.54;95190.16;5043082;28;20247;-75
2024/01/28 12:43:17;;;;;;;6.43;3.72;;;;;;;1.52;69.11;95189.97;5042981;28;20079;-74
2024/01/28 12:45:42;;;;;;;12.73;3.80;;;;;;;1.50;68.74;95192.00;5043129;28;20021;-74
2024/01/28 12:48:08;;;;;;;9.85;4.18;;;;;;;1.43;68.22;95178.19;5043006;28;20219;-74
2024/01/28 12:50:33;;;;;;;9.75;4.40;;;;;;;1.55;68.46;95189.53;5042780;28;20087;-74
2024/01/28 12:52:58;;;;;;;10.80;4.72;;;;;;;1.67;68.53;95193.00;5043091;28;20056;-75
2024/01/28 12:55:24;;;;;;;8.38;3.63;;;;;;;1.66;68.30;95191.38;5042934;28;20021;-74
2024/01/28 12:57:49;;;;;;;8.55;4.30;;;;;;;1.76;67.83;95188.19;5042820;28;20076;-74
2024/01/28 13:00:16;;;;;;;12.48;4.43;;;;;;;1.69;68.33;95195.38;5042738;28;20327;-74
2024/01/28 13:02:43;;;;;;;10.43;3.85;;;;;;;1.67;68.84;95190.38;5042575;28;20037;-74
2024/01/28 13:05:10;;;;;;;10.10;4.25;;;;;;;1.68;68.72;95199.84;5042909;28;20033;-74
2024/01/28 13:07:36;;;;;;;7.75;4.30;;;;;;;1.65;67.91;95208.19;5042709;28;20031;-75
2024/01/28 13:10:02;;;;;;;8.90;4.97;;;;;;;1.63;68.20;95198.91;5041453;28;20033;-75
2024/01/28 13:12:33;;;;;;;13.15;4.60;;;;;;;1.60;67.29;95192.28;5041899;28;20082;-74
2024/01/28 13:14:58;;;;;;;8.82;4.70;;;;;;;1.57;67.21;95198.00;5042893;28;20034;-74
2024/01/28 13:17:27;;;;;;;7.78;4.68;;;;;;;1.46;67.77;95198.72;5042518;28;20032;-74
2024/01/28 13:19:53;;;;;;;15.35;5.15;;;;;;;1.47;68.27;95195.09;5042410;28;20350;-74
2024/01/28 13:22:23;;;;;;;8.77;4.45;;;;;;;1.46;68.56;95204.78;5042005;28;20033;-74
2024/01/28 13:24:52;;;;;;;10.05;5.85;;;;;;;1.39;68.64;95188.31;5042444;28;20033;-74
2024/01/28 13:27:18;;;;;;;9.73;4.68;;;;;;;1.36;69.05;95196.63;5042581;28;20029;-75
2024/01/28 13:29:44;;;;;;;8.57;3.95;;;;;;;1.35;68.69;95203.72;5042447;28;20120;-74
2024/01/28 13:32:09;;;;;;;10.82;4.85;;;;;;;1.37;69.01;95196.41;5041202;28;20045;-74
2024/01/28 13:34:36;;;;;;;10.95;4.47;;;;;;;1.40;68.76;95197.78;5042456;28;20025;-74
2024/01/28 13:37:02;;;;;;;9.07;5.32;;;;;;;1.47;68.91;95202.97;5042337;28;20076;-74
2024/01/28 13:39:28;;;;;;;16.10;5.10;;;;;;;1.55;68.58;95200.03;5042428;28;20033;-74
2024/01/28 13:41:53;;;;;;;8.82;5.38;;;;;;;1.63;68.45;95212.88;5042159;28;20036;-75
2024/01/28 13:44:19;;;;;;;21.42;5.53;;;;;;;1.63;68.72;95198.91;5042367;28;20105;-75
2024/01/28 13:46:44;;;;;;;9.23;5.10;;;;;;;1.63;68.75;95215.50;5042368;28;20238;-75
2024/01/28 13:49:10;;;;;;;15.48;5.32;;;;;;;1.67;68.47;95218.44;5042411;28;20029;-75
2024/01/28 13:51:35;;;;;;;10.13;4.80;;;;;;;1.55;68.21;95210.53;5042299;28;20021;-75
2024/01/28 13:54:01;;;;;;;8.57;3.90;;;;;;;1.51;68.37;95217.28;5042259;28;20408;-75
2024/01/28 13:56:26;;;;;;;10.35;4.38;;;;;;;1.50;68.60;95218.28;5042166;28;20056;-75
2024/01/28 13:58:52;;;;;;;13.30;5.15;;;;;;;1.55;68.78;95221.84;5042137;28;20228;-75
2024/01/28 14:01:18;;;;;;;7.50;4.35;;;;;;;1.51;68.42;95219.91;5042374;28;20029;-75
2024/01/28 14:03:44;;;;;;;10.70;4.93;;;;;;;1.50;68.55;95213.81;5042001;28;20216;-75
2024/01/28 14:06:10;;;;;;;14.48;5.25;;;;;;;1.45;68.96;95213.69;5042070;28;20033;-74
2024/01/28 14:08:36;;;;;;;9.25;4.40;;;;;;;1.38;69.23;95221.69;5042127;28;20334;-74
2024/01/28 14:11:01;;;;;;;10.90;5.18;;;;;;;1.44;69.27;95213.91;5042138;28;20041;-74
2024/01/28 14:13:27;;;;;;;10.63;5.07;;;;;;;1.46;69.32;95220.53;5042154;28;20059;-74
2024/01/28 14:15:52;;;;;;;9.77;4.82;;;;;;;1.40;69.39;95221.44;5042053;28;20048;-75
2024/01/28 14:18:18;;;;;;;8.02;4.72;;;;;;;1.37;69.69;95208.75;5041829;28;20316;-74
2024/01/28 14:20:43;;;;;;;10.70;5.20;;;;;;;1.38;69.56;95207.72;5042827;28;20071;-75
2024/01/28 14:23:09;;;;;;;8.68;4.72;;;;;;;1.39;69.49;95223.28;5045825;28;20124;-75
2024/01/28 14:25:34;;;;;;;12.55;4.63;;;;;;;1.36;69.13;95226.34;5045623;28;20025;-75
2024/01/28 14:28:02;;;;;;;12.32;5.30;;;;;;;1.40;69.71;95222.25;5045866;28;20029;-71
2024/01/28 14:30:28;;;;;;;13.52;5.47;;;;;;;1.44;69.23;95229.69;5045842;28;20032;-71
2024/01/28 14:32:53;;;;;;;8.05;4.82;;;;;;;1.39;69.52;95225.91;5045532;28;20053;-71
2024/01/28 14:35:18;;;;;;;11.05;5.20;;;;;;;1.38;69.33;95229.56;5045720;28;20470;-71
2024/01/28 14:37:47;;;;;;;10.75;4.90;;;;;;;1.40;69.49;95224.06;5045585;28;20029;-71
2024/01/28 14:40:13;;;;;;;10.90;5.22;;;;;;;1.40;69.71;95231.94;5045521;28;20085;-71
2024/01/28 14:42:39;;;;;;;14.75;6.30;;;;;;;1.42;69.86;95235.16;5045366;28;20072;-71
2024/01/28 14:45:05;;;;;;;12.63;5.75;;;;;;;1.43;69.79;95230.72;5045496;28;20052;-71
2024/01/28 14:47:31;;;;;;;13.48;5.50;;;;;;;1.42;69.75;95234.34;5045410;28;20227;-71
2024/01/28 14:49:56;;;;;;;13.35;5.72;;;;;;;1.35;70.02;95237.06;5045390;28;20033;-70
2024/01/28 14:52:22;;;;;;;11.02;5.97;;;;;;;1.26;70.52;95241.81;5045115;28;20036;-70
2024/01/28 14:54:47;;;;;;;12.00;5.25;;;;;;;1.23;71.17;95244.09;5045215;28;20033;-70
2024/01/28 14:57:13;;;;;;;11.80;5.45;;;;;;;1.11;71.73;95236.16;5045214;28;20306;-70
2024/01/28 14:59:38;;;;;;;10.35;4.82;;;;;;;0.99;72.41;95241.31;5045106;28;20074;-70
2024/01/28 15:02:06;;;;;;;16.95;6.93;;;;;;;1.08;72.42;95250.53;5044921;28;20036;-70
2024/01/28 15:04:32;;;;;;;11.55;6.32;;;;;;;1.04;72.79;95240.66;5044910;28;20071;-70
2024/01/28 15:06:58;;;;;;;16.08;6.55;;;;;;;1.04;72.58;95251.16;5045042;28;20029;-70
2024/01/28 15:09:23;;;;;;;17.23;6.10;;;;;;;1.12;72.84;95248.25;5043688;28;20036;-71
2024/01/28 15:11:49;;;;;;;15.95;5.70;;;;;;;1.02;72.48;95254.03;5044898;28;20037;-70
2024/01/28 15:14:14;;;;;;;12.40;5.55;;;;;;;1.00;72.81;95248.97;5044726;28;20033;-70
2024/01/28 15:16:40;;;;;;;10.65;5.88;;;;;;;1.05;73.16;95247.53;5044581;28;20034;-70
2024/01/28 15:19:06;;;;;;;14.20;6.45;;;;;;;1.09;73.15;95244.22;5044575;28;20099;-70
2024/01/28 15:21:32;;;;;;;10.00;5.32;;;;;;;1.13;72.23;95255.09;5044609;28;20033;-71
2024/01/28 15:23:57;;;;;;;12.85;6.47;;;;;;;1.09;72.38;95246.84;5044807;28;20045;-70
2024/01/28 15:26:24;;;;;;;11.93;6.68;;;;;;;1.04;72.63;95257.22;5044550;28;20282;-70
2024/01/28 15:28:49;;;;;;;10.60;5.65;;;;;;;1.02;72.27;95242.69;5044410;28;20063;-72
2024/01/28 15:31:15;;;;;;;14.23;5.85;;;;;;;0.99;72.47;95260.50;5044906;28;20037;-72
2024/01/28 15:33:41;;;;;;;11.35;6.13;;;;;;;1.05;72.47;95271.94;5043554;28;20097;-72
2024/01/28 15:36:07;;;;;;;11.45;5.68;;;;;;;0.94;73.12;95260.34;5044298;28;20323;-72
2024/01/28 15:38:33;;;;;;;11.45;5.80;;;;;;;0.97;73.49;95273.03;5044233;28;20092;-72
2024/01/28 15:40:59;;;;;;;20.35;6.40;;;;;;;0.97;73.53;95275.66;5044400;28;20032;-72
2024/01/28 15:43:24;;;;;;;19.30;7.80;;;;;;;0.98;73.67;95268.59;5044648;28;20031;-72
2024/01/28 15:45:50;;;;;;;19.50;7.68;;;;;;;0.94;74.05;95275.31;5043027;28;20037;-72
2024/01/28 15:48:16;;;;;;;19.05;7.53;;;;;;;0.95;73.86;95277.69;5042605;28;20179;-72
2024/01/28 15:50:41;;;;;;;16.73;5.32;;;;;;;0.87;73.69;95288.47;5042977;28;20072;-72
2024/01/28 15:53:07;;;;;;;10.40;5.53;;;;;;;0.89;73.67;95283.81;5043320;28;20033;-71
2024/01/28 15:55:32;;;;;;;20.40;7.18;;;;;;;0.98;74.04;95287.78;5043661;28;20025;-71
2024/01/28 15:57:58;;;;;;;10.85;6.25;;;;;;;0.96;74.30;95279.31;5043294;28;20028;-72
2024/01/28 16:00:24;;;;;;;15.02;5.72;;;;;;;1.02;73.98;95280.28;5043545;28;20029;-72
2024/01/28 16:02:49;;;;;;;16.15;7.28;;;;;;;0.96;73.98;95283.78;5043875;28;20124;-72
2024/01/28 16:05:15;;;;;;;11.13;5.82;;;;;;;0.91;74.09;95289.66;5043717;28;20347;-72
2024/01/28 16:07:40;;;;;;;11.70;5.90;;;;;;;0.84;74.21;95288.94;5043725;28;20143;-72
2024/01/28 16:10:06;;;;;;;15.15;6.10;;;;;;;0.87;74.32;95290.31;5044008;28;20048;-72
2024/01/28 16:12:32;;;;;;;15.05;7.45;;;;;;;0.88;74.54;95299.81;5043857;28;20028;-72
2024/01/28 16:14:57;;;;;;;16.40;7.45;;;;;;;0.90;74.63;95301.19;5044124;28;20021;-72
2024/01/28 16:17:23;;;;;;;15.80;8.40;;;;;;;0.89;74.83;95290.91;5043637;28;20041;-73
2024/01/28 16:19:50;;;;;;;14.02;7.43;;;;;;;0.96;74.61;95302.16;5043396;28;20029;-73
2024/01/28 16:22:16;;;;;;;17.30;7.35;;;;;;;0.92;74.55;95307.03;5043505;28;20097;-74
2024/01/28 16:24:41;;;;;;;16.73;7.75;;;;;;;0.98;74.34;95306.16;5043584;28;20199;-73
2024/01/28 16:27:07;;;;;;;16.17;8.65;;;;;;;0.98;74.44;95308.78;5043688;28;20075;-72
2024/01/28 16:29:33;;;;;;;16.23;7.10;;;;;;;0.94;74.58;95302.38;5043356;28;20346;-73
2024/01/28 16:31:59;;;;;;;16.52;7.15;;;;;;;0.94;74.66;95314.69;5043493;28;20029;-73
2024/01/28 16:34:24;;;;;;;12.48;6.75;;;;;;;0.95;74.88;95317.09;5043352;28;20121;-72
2024/01/28 16:36:50;;;;;;;18.65;7.05;;;;;;;0.89;75.19;95309.28;5043567;28;20021;-73
2024/01/28 16:39:15;;;;;;;11.68;6.40;;;;;;;0.87;75.10;95313.94;5043342;28;20021;-76
2024/01/28 16:41:41;;;;;;;13.52;6.38;;;;;;;0.83;74.91;95302.28;5043568;28;20316;-71
2024/01/28 16:44:06;;;;;;;13.15;6.03;;;;;;;0.81;75.10;95310.34;5043208;28;20280;-74
2024/01/28 16:46:33;;;;;;;9.18;5.45;;;;;;;0.76;75.32;95320.72;5043372;28;20133;-73
2024/01/28 16:48:59;;;;;;;14.48;6.60;;;;;;;0.74;75.83;95314.88;5043183;28;20021;-70
2024/01/28 16:51:24;;;;;;;13.13;6.70;;;;;;;0.81;75.68;95318.22;5043310;28;20017;-70
2024/01/28 16:53:49;;;;;;;10.82;6.82;;;;;;;0.81;75.51;95331.34;5043355;28;20024;-70
2024/01/28 16:56:15;;;;;;;16.02;6.30;;;;;;;0.78;75.68;95327.34;5043057;28;20025;-69
2024/01/28 16:58:41;;;;;;;15.02;6.20;;;;;;;0.81;75.85;95326.09;5042948;28;20017;-70
2024/01/28 17:01:08;;;;;;;13.30;6.75;;;;;;;0.76;76.17;95323.34;5043099;28;20022;-70
2024/01/28 17:03:34;;;;;;;13.45;5.78;;;;;;;0.74;76.11;95322.75;5041783;28;20025;-70
2024/01/28 17:06:00;;;;;;;12.30;6.00;;;;;;;0.76;76.23;95328.59;5043232;28;20067;-70
2024/01/28 17:08:26;;;;;;;12.30;5.95;;;;;;;0.76;75.91;95328.59;5043029;28;20019;-70
2024/01/28 17:10:52;;;;;;;13.65;5.57;;;;;;;0.77;76.18;95336.25;5042916;28;20025;-70
2024/01/28 17:13:17;;;;;;;14.38;7.00;;;;;;;0.80;76.10;95341.06;5042996;28;20040;-70
2024/01/28 17:15:42;;;;;;;13.07;6.10;;;;;;;0.72;76.22;95340.53;5042683;28;20017;-70
2024/01/28 17:18:08;;;;;;;12.05;5.72;;;;;;;0.73;76.56;95342.13;5042796;28;20029;-70
2024/01/28 17:20:34;;;;;;;14.35;6.10;;;;;;;0.69;76.77;95338.31;5042552;28;20040;-70
2024/01/28 17:23:00;;;;;;;15.52;5.90;;;;;;;0.75;76.83;95335.66;5042877;28;20065;-70
2024/01/28 17:25:26;;;;;;;10.98;5.70;;;;;;;0.76;76.71;95342.50;5042729;28;20029;-70
2024/01/28 17:27:51;;;;;;;13.48;6.40;;;;;;;0.75;76.28;95340.09;5042670;28;20083;-70
2024/01/28 17:30:16;;;;;;;11.73;6.45;;;;;;;0.79;76.61;95351.75;5042588;28;20028;-70
2024/01/28 17:32:42;;;;;;;10.70;5.45;;;;;;;0.79;76.76;95343.88;5042715;28;20029;-70
2024/01/28 17:35:07;;;;;;;18.75;7.50;;;;;;;0.81;76.46;95354.97;5042706;28;20028;-70
2024/01/28 17:37:33;;;;;;;14.32;6.93;;;;;;;0.78;76.65;95348.34;5042507;28;20033;-70
2024/01/28 17:40:00;;;;;;;15.85;6.75;;;;;;;0.80;76.52;95354.19;5042823;28;20030;-70
2024/01/28 17:42:25;;;;;;;15.52;5.63;;;;;;;0.80;76.96;95342.88;5042465;28;20312;-71
2024/01/28 17:44:51;;;;;;;12.52;6.00;;;;;;;0.80;76.48;95351.56;5042487;28;20053;-70
2024/01/28 17:47:16;;;;;;;19.63;6.55;;;;;;;0.78;76.27;95344.91;5042496;28;20056;-70
2024/01/28 17:49:44;;;;;;;13.23;6.57;;;;;;;0.76;76.84;95346.97;5042415;28;20020;-70
2024/01/28 17:52:11;;;;;;;14.90;5.95;;;;;;;0.77;76.71;95357.25;5042317;28;20031;-70
2024/01/28 17:54:37;;;;;;;15.82;7.32;;;;;;;0.83;76.78;95360.81;5042402;28;20028;-70
2024/01/28 17:57:03;;;;;;;12.77;6.97;;;;;;;0.87;76.59;95355.94;5045516;28;20021;-70
2024/01/28 17:59:28;;;;;;;17.70;7.45;;;;;;;0.88;76.44;95363.63;5046687;28;20033;-69
2024/01/28 18:01:54;;;;;;;15.25;6.68;;;;;;;0.85;76.50;95364.03;5046152;28;20029;-69
2024/01/28 18:04:19;;;;;;;12.93;5.93;;;;;;;0.74;76.89;95368.16;5046398;28;20108;-69
2024/01/28 18:06:44;;;;;;;15.45;6.75;;;;;;;0.73;77.05;95360.50;5046200;28;20049;-69
2024/01/28 18:09:10;;;;;;;15.57;7.35;;;;;;;0.76;77.19;95370.56;5046214;28;20034;-69
2024/01/28 18:11:35;;;;;;;16.00;8.35;;;;;;;0.79;76.93;95373.59;5045324;28;20035;-69
2024/01/28 18:14:01;;;;;;;16.65;6.93;;;;;;;0.74;77.09;95375.25;5046163;28;20057;-69
2024/01/28 18:16:27;;;;;;;12.02;6.25;;;;;;;0.74;76.87;95373.41;5046443;28;20056;-69
2024/01/28 18:18:52;;;;;;;15.50;6.32;;;;;;;0.78;76.92;95377.22;5045986;28;20060;-69
2024/01/28 18:21:18;;;;;;;13.43;6.35;;;;;;;0.67;77.05;95363.97;5046032;28;20039;-69
2024/01/28 18:23:44;;;;;;;16.20;7.40;;;;;;;0.75;77.21;95371.56;5045628;28;20042;-69
2024/01/28 18:26:10;;;;;;;17.95;8.02;;;;;;;0.80;76.97;95371.75;5045924;28;20382;-69
2024/01/28 18:28:36;;;;;;;17.27;8.30;;;;;;;0.75;76.81;95385.53;5045733;28;20320;-69
2024/01/28 18:31:02;;;;;;;19.10;8.15;;;;;;;0.73;77.04;95376.25;5045783;28;20031;-69
2024/01/28 18:33:33;;;;;;;21.92;8.43;;;;;;;0.64;76.96;95372.28;5045857;28;20265;-70
2024/01/28 18:35:59;;;;;;;15.40;8.27;;;;;;;0.68;77.18;95369.00;5045855;28;20684;-69
2024/01/28 18:38:24;;;;;;;18.17;7.32;;;;;;;0.65;77.49;95376.50;5045693;28;20040;-70
2024/01/28 18:40:50;;;;;;;15.20;6.93;;;;;;;0.69;77.42;95377.69;5045844;28;20033;-69
2024/01/28 18:43:15;;;;;;;15.82;6.63;;;;;;;0.72;76.88;95385.16;5045498;28;20033;-69
2024/01/28 18:45:41;;;;;;;15.93;7.20;;;;;;;0.70;77.21;95382.72;5045518;28;20096;-69
2024/01/28 18:48:12;;;;;;;14.02;5.78;;;;;;;0.62;77.33;95390.88;5045498;28;20258;-69
2024/01/28 18:50:41;;;;;;;18.35;6.93;;;;;;;0.65;77.23;95387.00;5045502;28;20025;-69
2024/01/28 18:53:08;;;;;;;15.57;6.82;;;;;;;0.69;77.14;95396.06;5045257;28;20098;-69
2024/01/28 18:55:34;;;;;;;10.93;6.03;;;;;;;0.71;77.13;95388.78;5045607;28;20065;-69